American Freedom — WDC3284 — position and weather

sailwx.info

Track history (hours):
 
Tides and Currents Weather Stations Pressure Air Temp Water Temp Dewpoint Dewpoint Depression Visibility Wind Speed Wind Dir Waves Ship Positions

American Freedom

Owner: LeBeouf Bros. Towing, L.L.C., Houma, LA. More information available from US FCC via Universal Licensing System and Coast Guard Vessel Documentation Center.

Last reported at 2017-Nov-19 21:38 UTC. Time now 2017-Nov-21 23:16 UTC.
Position N 29°44' W 095°03'.

Length 24 m.

Type: Tug. MMSI: 367005260.

Date/timePositionNaut miles runAvg speedWind from/ knotsBaromVisibWave heightAir tempDewpointWater temp
2017-Nov-19 21:38N 29°44' W 095°03'1 7.5
2017-Nov-19 21:27N 29°44' W 095°02'2 3.5
2017-Nov-19 21:00N 29°43' W 095°03'0 0.4
2017-Nov-19 20:30N 29°42' W 095°03'0 0.0
2017-Nov-19 18:29N 29°42' W 095°03'0 0.1
2017-Nov-19 17:58N 29°42' W 095°03'0 0.0
2017-Nov-19 17:30N 29°42' W 095°03'0 0.1
2017-Nov-19 16:38N 29°42' W 095°03'0 0.1
2017-Nov-19 16:29N 29°42' W 095°03'0 0.0
2017-Nov-17 22:34N 29°42' W 095°03'0 0.0
2017-Nov-17 08:31N 29°42' W 095°03'0 0.0
2017-Nov-17 08:31N 29°42' W 095°03'2 3.2
2017-Nov-17 08:01N 29°44' W 095°02'1 1.0
2017-Nov-17 06:52N 29°44' W 095°03'2 5.9
2017-Nov-17 06:30N 29°43' W 095°01'1 0.2
2017-Nov-17 00:12N 29°42' W 095°03'1 5.7
2017-Nov-16 23:58N 29°42' W 095°01'2 4.7
2017-Nov-16 23:30N 29°44' W 095°03'0 0.1
2017-Nov-16 22:59N 29°44' W 095°03'0 0.1
2017-Nov-16 22:30N 29°44' W 095°03'0 0.0
2017-Nov-16 22:01N 29°44' W 095°03'0 0.0
2017-Nov-16 21:30N 29°44' W 095°03'0 0.0
2017-Nov-16 21:00N 29°44' W 095°03'0 0.0
2017-Nov-16 20:30N 29°44' W 095°03'0 0.9
2017-Nov-16 20:00N 29°44' W 095°02'0 0.2
2017-Nov-16 17:41N 29°44' W 095°03'1 7.7
2017-Nov-16 17:31N 29°44' W 095°02'2 2.9
2017-Nov-16 16:55N 29°42' W 095°03'0 0.0
2017-Nov-16 16:31N 29°42' W 095°03'0 0.0
2017-Nov-16 15:59N 29°42' W 095°03'0 0.0
2017-Nov-16 15:30N 29°42' W 095°03'0 0.0
2017-Nov-16 15:01N 29°42' W 095°03'0 0.0
2017-Nov-16 14:31N 29°42' W 095°03'0 0.0
2017-Nov-16 13:59N 29°42' W 095°03'0 0.0
2017-Nov-16 13:30N 29°42' W 095°03'0 0.0
2017-Nov-16 13:00N 29°42' W 095°03'0 0.0
2017-Nov-16 12:30N 29°42' W 095°03'0 0.0
2017-Nov-16 12:00N 29°42' W 095°03'0 0.0
2017-Nov-16 11:29N 29°42' W 095°03'0 0.0
2017-Nov-16 11:01N 29°42' W 095°03'0 0.0
2017-Nov-16 10:29N 29°42' W 095°03'0 0.0
2017-Nov-16 10:00N 29°42' W 095°03'0 0.0
2017-Nov-16 09:30N 29°42' W 095°03'0 0.0
2017-Nov-16 09:00N 29°42' W 095°03'0 0.0
2017-Nov-16 08:30N 29°42' W 095°03'2 4.5
2017-Nov-16 07:58N 29°42' W 095°00'4 8.1
2017-Nov-16 07:30N 29°39' W 094°58'4 8.9
2017-Nov-16 07:01N 29°35' W 094°56'7 0.2
2017-Nov-15 04:15N 29°29' W 094°52'3 9.4
2017-Nov-15 03:57N 29°31' W 094°53'4 9.1
2017-Nov-15 03:31N 29°35' W 094°56'5 9.3
2017-Nov-15 03:01N 29°39' W 094°58'6 8.7
2017-Nov-15 02:22N 29°44' W 095°02'3 8.2
2017-Nov-15 01:57N 29°46' W 095°05'1 2.5
2017-Nov-15 01:22N 29°45' W 095°06'0 0.0
2017-Nov-15 01:00N 29°45' W 095°06'2 0.3
2017-Nov-14 16:32N 29°44' W 095°03'0 9.2
2017-Nov-14 16:29N 29°44' W 095°03'2 3.3
2017-Nov-14 16:00N 29°43' W 095°03'0 0.1
2017-Nov-14 15:31N 29°42' W 095°03'0 0.0
2017-Nov-14 13:39N 29°43' W 095°03'0 0.0
2017-Nov-14 13:19N 29°43' W 095°03'0 0.0
2017-Nov-14 12:50N 29°43' W 095°03'0 0.0
2017-Nov-14 12:28N 29°43' W 095°03'0 0.0
2017-Nov-14 10:16N 29°43' W 095°03'1 3.4
2017-Nov-14 09:52N 29°42' W 095°01'1 4.2
2017-Nov-14 09:30N 29°44' W 095°02'4 6.0
2017-Nov-14 08:54N 29°46' W 095°05'3 6.6
2017-Nov-14 08:29N 29°44' W 095°08'3 6.5
2017-Nov-14 08:00N 29°45' W 095°11'1 0.1
2017-Nov-14 00:04N 29°45' W 095°12'8 0.4
2017-Nov-13 02:01N 29°42' W 095°03'0 0.1
2017-Nov-13 01:04N 29°42' W 095°03'0 0.1
2017-Nov-13 01:00N 29°42' W 095°03'0 0.0
2017-Nov-13 00:24N 29°42' W 095°03'0 0.0
2017-Nov-12 23:59N 29°42' W 095°03'0 0.0
2017-Nov-12 23:29N 29°42' W 095°03'0 0.0
2017-Nov-12 23:00N 29°42' W 095°03'0 0.0
2017-Nov-12 22:29N 29°42' W 095°03'0 0.0
2017-Nov-12 22:00N 29°42' W 095°03'0 0.0
2017-Nov-12 21:31N 29°42' W 095°03'0 0.0
2017-Nov-12 21:01N 29°42' W 095°03'0 0.0
2017-Nov-12 20:27N 29°42' W 095°03'0 0.0
2017-Nov-12 19:57N 29°42' W 095°03'0 0.0
2017-Nov-12 19:29N 29°42' W 095°03'0 0.0
2017-Nov-12 19:00N 29°42' W 095°03'0 0.0
2017-Nov-12 18:23N 29°42' W 095°03'0 0.0
2017-Nov-12 17:57N 29°42' W 095°03'0 0.0
2017-Nov-12 17:28N 29°42' W 095°03'0 0.0
2017-Nov-12 16:58N 29°42' W 095°03'0 0.0
2017-Nov-12 16:29N 29°42' W 095°03'0 0.0
2017-Nov-12 16:00N 29°42' W 095°03'0 0.0
2017-Nov-12 15:29N 29°42' W 095°03'0 0.0
2017-Nov-12 14:56N 29°42' W 095°03'0 0.0
2017-Nov-12 14:29N 29°42' W 095°03'0 0.0
2017-Nov-12 13:59N 29°42' W 095°03'0 0.0
2017-Nov-12 13:30N 29°42' W 095°03'0 0.0
2017-Nov-12 13:00N 29°42' W 095°03'0 0.0
2017-Nov-12 12:29N 29°42' W 095°03'0 0.0
2017-Nov-12 12:00N 29°42' W 095°03'0 0.0
2017-Nov-12 11:28N 29°42' W 095°03'0 0.0
2017-Nov-12 11:00N 29°42' W 095°03'0 0.0
2017-Nov-12 10:30N 29°42' W 095°03'0 0.0
2017-Nov-12 10:00N 29°42' W 095°03'0 0.0
2017-Nov-12 09:29N 29°42' W 095°03'0 0.0
2017-Nov-12 09:00N 29°42' W 095°03'0 0.0
2017-Nov-12 08:29N 29°42' W 095°03'0 0.0
2017-Nov-12 07:54N 29°42' W 095°03'0 0.0
2017-Nov-12 07:24N 29°42' W 095°03'0 0.0
2017-Nov-12 07:00N 29°42' W 095°03'0 0.0
2017-Nov-12 06:27N 29°42' W 095°03'0 0.0
2017-Nov-12 05:50N 29°42' W 095°03'0 0.0
2017-Nov-12 05:26N 29°42' W 095°03'0 0.0
2017-Nov-12 05:00N 29°42' W 095°03'0 0.0
2017-Nov-12 04:21N 29°42' W 095°03'0 0.0
2017-Nov-12 03:59N 29°42' W 095°03'0 0.0
2017-Nov-12 03:30N 29°42' W 095°03'0 0.0
2017-Nov-12 02:57N 29°42' W 095°03'0 0.0
2017-Nov-12 02:15N 29°42' W 095°03'0 0.0
2017-Nov-12 02:00N 29°42' W 095°03'0 0.0
2017-Nov-12 01:24N 29°42' W 095°03'0 0.0
2017-Nov-12 00:53N 29°42' W 095°03'0 0.0
2017-Nov-11 23:36N 29°42' W 095°03'0 0.0
2017-Nov-11 23:24N 29°42' W 095°03'0 0.0
2017-Nov-11 22:56N 29°42' W 095°03'0 0.0
2017-Nov-11 22:19N 29°42' W 095°03'0 0.0
2017-Nov-11 21:53N 29°42' W 095°03'0 0.0
2017-Nov-11 21:24N 29°42' W 095°03'0 0.0
2017-Nov-11 20:48N 29°42' W 095°03'0 0.0
2017-Nov-11 20:26N 29°42' W 095°03'0 0.0
2017-Nov-11 19:55N 29°42' W 095°03'0 0.0
2017-Nov-11 19:26N 29°42' W 095°03'0 0.0
2017-Nov-11 17:28N 29°42' W 095°03'0 0.0
2017-Nov-11 16:59N 29°42' W 095°03'0 0.0
2017-Nov-11 14:38N 29°42' W 095°03'0 0.0
2017-Nov-11 14:24N 29°42' W 095°03'0 0.0
2017-Nov-11 13:53N 29°42' W 095°03'0 0.0
2017-Nov-11 13:26N 29°42' W 095°03'0 0.1
2017-Nov-11 12:31N 29°42' W 095°03'0 0.0
2017-Nov-11 12:21N 29°42' W 095°03'0 0.0
2017-Nov-11 11:50N 29°42' W 095°03'0 0.0
2017-Nov-11 11:29N 29°42' W 095°03'0 0.0
2017-Nov-11 10:54N 29°42' W 095°03'0 0.0
2017-Nov-11 10:03N 29°42' W 095°03'0 0.0
2017-Nov-11 09:50N 29°42' W 095°03'0 0.0
2017-Nov-11 09:28N 29°42' W 095°03'0 0.0
2017-Nov-11 08:59N 29°42' W 095°03'0 0.0
2017-Nov-11 08:26N 29°42' W 095°03'0 0.0
2017-Nov-11 07:29N 29°42' W 095°03'0 0.0
2017-Nov-11 07:00N 29°42' W 095°03'0 0.0
2017-Nov-11 06:24N 29°42' W 095°03'0 0.0
2017-Nov-11 06:00N 29°42' W 095°03'0 0.0
2017-Nov-11 05:27N 29°42' W 095°03'0 0.0
2017-Nov-11 04:55N 29°42' W 095°03'0 0.0
2017-Nov-11 04:27N 29°42' W 095°03'0 0.0
2017-Nov-11 03:57N 29°42' W 095°03'0 0.0
2017-Nov-11 03:28N 29°42' W 095°03'0 0.0
2017-Nov-11 03:00N 29°42' W 095°03'0 0.0
2017-Nov-11 02:29N 29°42' W 095°03'0 0.0
2017-Nov-11 01:13N 29°42' W 095°03'0 0.0
2017-Nov-11 00:52N 29°42' W 095°03'0 0.0
2017-Nov-11 00:30N 29°42' W 095°03'0 0.0
2017-Nov-10 23:55N 29°42' W 095°03'0 0.0
2017-Nov-10 23:30N 29°42' W 095°03'0 0.0
2017-Nov-10 22:58N 29°42' W 095°03'0 0.0
2017-Nov-10 22:30N 29°42' W 095°03'0 0.0
2017-Nov-10 19:43N 29°42' W 095°03'0 0.0
2017-Nov-10 19:18N 29°42' W 095°03'0 0.0
2017-Nov-10 18:46N 29°42' W 095°03'0 0.0
2017-Nov-10 18:29N 29°42' W 095°03'0 0.0
2017-Nov-10 17:50N 29°42' W 095°03'0 0.0
2017-Nov-10 17:30N 29°42' W 095°03'0 0.0
2017-Nov-10 16:58N 29°42' W 095°03'0 0.0
2017-Nov-10 16:30N 29°42' W 095°03'0 0.0
2017-Nov-10 16:00N 29°42' W 095°03'0 0.0
2017-Nov-10 15:29N 29°42' W 095°03'0 0.0
2017-Nov-10 14:57N 29°42' W 095°03'0 0.0
2017-Nov-10 14:30N 29°42' W 095°03'0 0.0
2017-Nov-10 14:00N 29°42' W 095°03'0 0.0
2017-Nov-10 13:28N 29°42' W 095°03'0 0.0
2017-Nov-10 13:00N 29°42' W 095°03'0 0.0
2017-Nov-10 12:30N 29°42' W 095°03'0 0.0
2017-Nov-10 11:58N 29°42' W 095°03'0 0.0
2017-Nov-10 11:28N 29°42' W 095°03'0 0.0
2017-Nov-10 11:00N 29°42' W 095°03'0 0.0
2017-Nov-10 10:24N 29°42' W 095°03'0 0.0
2017-Nov-10 10:00N 29°42' W 095°03'0 0.0
2017-Nov-10 09:30N 29°42' W 095°03'0 0.0
2017-Nov-10 08:59N 29°42' W 095°03'0 0.0
2017-Nov-10 08:28N 29°42' W 095°03'0 0.0
2017-Nov-10 08:00N 29°42' W 095°03'0 0.0
2017-Nov-10 07:30N 29°42' W 095°03'0 0.0
2017-Nov-10 07:00N 29°42' W 095°03'0 0.0
2017-Nov-10 06:30N 29°42' W 095°03'0 0.0
2017-Nov-10 06:00N 29°42' W 095°03'0 0.0
2017-Nov-10 05:30N 29°42' W 095°03'3 6.8
2017-Nov-10 05:00N 29°41' W 094°59'510.1
2017-Nov-10 04:30N 29°37' W 094°57'  
Track history (hours):
 
Tides and Currents Weather Stations Pressure Air Temp Water Temp Dewpoint Dewpoint Depression Visibility Wind Speed Wind Dir Waves Ship Positions

American Freedom

Owner: LeBeouf Bros. Towing, L.L.C., Houma, LA. More information available from US FCC via Universal Licensing System and Coast Guard Vessel Documentation Center.

Last reported at 2017-Nov-19 21:38 UTC. Time now 2017-Nov-21 23:17 UTC.
Position N 29°44' W 095°03'.

Length 24 m.

Type: Tug. MMSI: 367005260.

Date/timePositionNaut miles runAvg speedWind from/ knotsBaromVisibWave heightAir tempDewpointWater temp
2017-Nov-19 21:38N 29°44' W 095°03'1 7.5
2017-Nov-19 21:27N 29°44' W 095°02'2 3.5
2017-Nov-19 21:00N 29°43' W 095°03'0 0.4
2017-Nov-19 20:30N 29°42' W 095°03'0 0.0
2017-Nov-19 18:29N 29°42' W 095°03'0 0.1
2017-Nov-19 17:58N 29°42' W 095°03'0 0.0
2017-Nov-19 17:30N 29°42' W 095°03'0 0.1
2017-Nov-19 16:38N 29°42' W 095°03'0 0.1
2017-Nov-19 16:29N 29°42' W 095°03'0 0.0
2017-Nov-17 22:34N 29°42' W 095°03'0 0.0
2017-Nov-17 08:31N 29°42' W 095°03'0 0.0
2017-Nov-17 08:31N 29°42' W 095°03'2 3.2
2017-Nov-17 08:01N 29°44' W 095°02'1 1.0
2017-Nov-17 06:52N 29°44' W 095°03'2 5.9
2017-Nov-17 06:30N 29°43' W 095°01'1 0.2
2017-Nov-17 00:12N 29°42' W 095°03'1 5.7
2017-Nov-16 23:58N 29°42' W 095°01'2 4.7
2017-Nov-16 23:30N 29°44' W 095°03'0 0.1
2017-Nov-16 22:59N 29°44' W 095°03'0 0.1
2017-Nov-16 22:30N 29°44' W 095°03'0 0.0
2017-Nov-16 22:01N 29°44' W 095°03'0 0.0
2017-Nov-16 21:30N 29°44' W 095°03'0 0.0
2017-Nov-16 21:00N 29°44' W 095°03'0 0.0
2017-Nov-16 20:30N 29°44' W 095°03'0 0.9
2017-Nov-16 20:00N 29°44' W 095°02'0 0.2
2017-Nov-16 17:41N 29°44' W 095°03'1 7.7
2017-Nov-16 17:31N 29°44' W 095°02'2 2.9
2017-Nov-16 16:55N 29°42' W 095°03'0 0.0
2017-Nov-16 16:31N 29°42' W 095°03'0 0.0
2017-Nov-16 15:59N 29°42' W 095°03'0 0.0
2017-Nov-16 15:30N 29°42' W 095°03'0 0.0
2017-Nov-16 15:01N 29°42' W 095°03'0 0.0
2017-Nov-16 14:31N 29°42' W 095°03'0 0.0
2017-Nov-16 13:59N 29°42' W 095°03'0 0.0
2017-Nov-16 13:30N 29°42' W 095°03'0 0.0
2017-Nov-16 13:00N 29°42' W 095°03'0 0.0
2017-Nov-16 12:30N 29°42' W 095°03'0 0.0
2017-Nov-16 12:00N 29°42' W 095°03'0 0.0
2017-Nov-16 11:29N 29°42' W 095°03'0 0.0
2017-Nov-16 11:01N 29°42' W 095°03'0 0.0
2017-Nov-16 10:29N 29°42' W 095°03'0 0.0
2017-Nov-16 10:00N 29°42' W 095°03'0 0.0
2017-Nov-16 09:30N 29°42' W 095°03'0 0.0
2017-Nov-16 09:00N 29°42' W 095°03'0 0.0
2017-Nov-16 08:30N 29°42' W 095°03'2 4.5
2017-Nov-16 07:58N 29°42' W 095°00'4 8.1
2017-Nov-16 07:30N 29°39' W 094°58'4 8.9
2017-Nov-16 07:01N 29°35' W 094°56'7 0.2
2017-Nov-15 04:15N 29°29' W 094°52'3 9.4
2017-Nov-15 03:57N 29°31' W 094°53'4 9.1
2017-Nov-15 03:31N 29°35' W 094°56'5 9.3
2017-Nov-15 03:01N 29°39' W 094°58'6 8.7
2017-Nov-15 02:22N 29°44' W 095°02'3 8.2
2017-Nov-15 01:57N 29°46' W 095°05'1 2.5
2017-Nov-15 01:22N 29°45' W 095°06'0 0.0
2017-Nov-15 01:00N 29°45' W 095°06'2 0.3
2017-Nov-14 16:32N 29°44' W 095°03'0 9.2
2017-Nov-14 16:29N 29°44' W 095°03'2 3.3
2017-Nov-14 16:00N 29°43' W 095°03'0 0.1
2017-Nov-14 15:31N 29°42' W 095°03'0 0.0
2017-Nov-14 13:39N 29°43' W 095°03'0 0.0
2017-Nov-14 13:19N 29°43' W 095°03'0 0.0
2017-Nov-14 12:50N 29°43' W 095°03'0 0.0
2017-Nov-14 12:28N 29°43' W 095°03'0 0.0
2017-Nov-14 10:16N 29°43' W 095°03'1 3.4
2017-Nov-14 09:52N 29°42' W 095°01'1 4.2
2017-Nov-14 09:30N 29°44' W 095°02'4 6.0
2017-Nov-14 08:54N 29°46' W 095°05'3 6.6
2017-Nov-14 08:29N 29°44' W 095°08'3 6.5
2017-Nov-14 08:00N 29°45' W 095°11'1 0.1
2017-Nov-14 00:04N 29°45' W 095°12'8 0.4
2017-Nov-13 02:01N 29°42' W 095°03'0 0.1
2017-Nov-13 01:04N 29°42' W 095°03'0 0.1
2017-Nov-13 01:00N 29°42' W 095°03'0 0.0
2017-Nov-13 00:24N 29°42' W 095°03'0 0.0
2017-Nov-12 23:59N 29°42' W 095°03'0 0.0
2017-Nov-12 23:29N 29°42' W 095°03'0 0.0
2017-Nov-12 23:00N 29°42' W 095°03'0 0.0
2017-Nov-12 22:29N 29°42' W 095°03'0 0.0
2017-Nov-12 22:00N 29°42' W 095°03'0 0.0
2017-Nov-12 21:31N 29°42' W 095°03'0 0.0
2017-Nov-12 21:01N 29°42' W 095°03'0 0.0
2017-Nov-12 20:27N 29°42' W 095°03'0 0.0
2017-Nov-12 19:57N 29°42' W 095°03'0 0.0
2017-Nov-12 19:29N 29°42' W 095°03'0 0.0
2017-Nov-12 19:00N 29°42' W 095°03'0 0.0
2017-Nov-12 18:23N 29°42' W 095°03'0 0.0
2017-Nov-12 17:57N 29°42' W 095°03'0 0.0
2017-Nov-12 17:28N 29°42' W 095°03'0 0.0
2017-Nov-12 16:58N 29°42' W 095°03'0 0.0
2017-Nov-12 16:29N 29°42' W 095°03'0 0.0
2017-Nov-12 16:00N 29°42' W 095°03'0 0.0
2017-Nov-12 15:29N 29°42' W 095°03'0 0.0
2017-Nov-12 14:56N 29°42' W 095°03'0 0.0
2017-Nov-12 14:29N 29°42' W 095°03'0 0.0
2017-Nov-12 13:59N 29°42' W 095°03'0 0.0
2017-Nov-12 13:30N 29°42' W 095°03'0 0.0
2017-Nov-12 13:00N 29°42' W 095°03'0 0.0
2017-Nov-12 12:29N 29°42' W 095°03'0 0.0
2017-Nov-12 12:00N 29°42' W 095°03'0 0.0
2017-Nov-12 11:28N 29°42' W 095°03'0 0.0
2017-Nov-12 11:00N 29°42' W 095°03'0 0.0
2017-Nov-12 10:30N 29°42' W 095°03'0 0.0
2017-Nov-12 10:00N 29°42' W 095°03'0 0.0
2017-Nov-12 09:29N 29°42' W 095°03'0 0.0
2017-Nov-12 09:00N 29°42' W 095°03'0 0.0
2017-Nov-12 08:29N 29°42' W 095°03'0 0.0
2017-Nov-12 07:54N 29°42' W 095°03'0 0.0
2017-Nov-12 07:24N 29°42' W 095°03'0 0.0
2017-Nov-12 07:00N 29°42' W 095°03'0 0.0
2017-Nov-12 06:27N 29°42' W 095°03'0 0.0
2017-Nov-12 05:50N 29°42' W 095°03'0 0.0
2017-Nov-12 05:26N 29°42' W 095°03'0 0.0
2017-Nov-12 05:00N 29°42' W 095°03'0 0.0
2017-Nov-12 04:21N 29°42' W 095°03'0 0.0
2017-Nov-12 03:59N 29°42' W 095°03'0 0.0
2017-Nov-12 03:30N 29°42' W 095°03'0 0.0
2017-Nov-12 02:57N 29°42' W 095°03'0 0.0
2017-Nov-12 02:15N 29°42' W 095°03'0 0.0
2017-Nov-12 02:00N 29°42' W 095°03'0 0.0
2017-Nov-12 01:24N 29°42' W 095°03'0 0.0
2017-Nov-12 00:53N 29°42' W 095°03'0 0.0
2017-Nov-11 23:36N 29°42' W 095°03'0 0.0
2017-Nov-11 23:24N 29°42' W 095°03'0 0.0
2017-Nov-11 22:56N 29°42' W 095°03'0 0.0
2017-Nov-11 22:19N 29°42' W 095°03'0 0.0
2017-Nov-11 21:53N 29°42' W 095°03'0 0.0
2017-Nov-11 21:24N 29°42' W 095°03'0 0.0
2017-Nov-11 20:48N 29°42' W 095°03'0 0.0
2017-Nov-11 20:26N 29°42' W 095°03'0 0.0
2017-Nov-11 19:55N 29°42' W 095°03'0 0.0
2017-Nov-11 19:26N 29°42' W 095°03'0 0.0
2017-Nov-11 17:28N 29°42' W 095°03'0 0.0
2017-Nov-11 16:59N 29°42' W 095°03'0 0.0
2017-Nov-11 14:38N 29°42' W 095°03'0 0.0
2017-Nov-11 14:24N 29°42' W 095°03'0 0.0
2017-Nov-11 13:53N 29°42' W 095°03'0 0.0
2017-Nov-11 13:26N 29°42' W 095°03'0 0.1
2017-Nov-11 12:31N 29°42' W 095°03'0 0.0
2017-Nov-11 12:21N 29°42' W 095°03'0 0.0
2017-Nov-11 11:50N 29°42' W 095°03'0 0.0
2017-Nov-11 11:29N 29°42' W 095°03'0 0.0
2017-Nov-11 10:54N 29°42' W 095°03'0 0.0
2017-Nov-11 10:03N 29°42' W 095°03'0 0.0
2017-Nov-11 09:50N 29°42' W 095°03'0 0.0
2017-Nov-11 09:28N 29°42' W 095°03'0 0.0
2017-Nov-11 08:59N 29°42' W 095°03'0 0.0
2017-Nov-11 08:26N 29°42' W 095°03'0 0.0
2017-Nov-11 07:29N 29°42' W 095°03'0 0.0
2017-Nov-11 07:00N 29°42' W 095°03'0 0.0
2017-Nov-11 06:24N 29°42' W 095°03'0 0.0
2017-Nov-11 06:00N 29°42' W 095°03'0 0.0
2017-Nov-11 05:27N 29°42' W 095°03'0 0.0
2017-Nov-11 04:55N 29°42' W 095°03'0 0.0
2017-Nov-11 04:27N 29°42' W 095°03'0 0.0
2017-Nov-11 03:57N 29°42' W 095°03'0 0.0
2017-Nov-11 03:28N 29°42' W 095°03'0 0.0
2017-Nov-11 03:00N 29°42' W 095°03'0 0.0
2017-Nov-11 02:29N 29°42' W 095°03'0 0.0
2017-Nov-11 01:13N 29°42' W 095°03'0 0.0
2017-Nov-11 00:52N 29°42' W 095°03'0 0.0
2017-Nov-11 00:30N 29°42' W 095°03'0 0.0
2017-Nov-10 23:55N 29°42' W 095°03'0 0.0
2017-Nov-10 23:30N 29°42' W 095°03'0 0.0
2017-Nov-10 22:58N 29°42' W 095°03'0 0.0
2017-Nov-10 22:30N 29°42' W 095°03'0 0.0
2017-Nov-10 19:43N 29°42' W 095°03'0 0.0
2017-Nov-10 19:18N 29°42' W 095°03'0 0.0
2017-Nov-10 18:46N 29°42' W 095°03'0 0.0
2017-Nov-10 18:29N 29°42' W 095°03'0 0.0
2017-Nov-10 17:50N 29°42' W 095°03'0 0.0
2017-Nov-10 17:30N 29°42' W 095°03'0 0.0
2017-Nov-10 16:58N 29°42' W 095°03'0 0.0
2017-Nov-10 16:30N 29°42' W 095°03'0 0.0
2017-Nov-10 16:00N 29°42' W 095°03'0 0.0
2017-Nov-10 15:29N 29°42' W 095°03'0 0.0
2017-Nov-10 14:57N 29°42' W 095°03'0 0.0
2017-Nov-10 14:30N 29°42' W 095°03'0 0.0
2017-Nov-10 14:00N 29°42' W 095°03'0 0.0
2017-Nov-10 13:28N 29°42' W 095°03'0 0.0
2017-Nov-10 13:00N 29°42' W 095°03'0 0.0
2017-Nov-10 12:30N 29°42' W 095°03'0 0.0
2017-Nov-10 11:58N 29°42' W 095°03'0 0.0
2017-Nov-10 11:28N 29°42' W 095°03'0 0.0
2017-Nov-10 11:00N 29°42' W 095°03'0 0.0
2017-Nov-10 10:24N 29°42' W 095°03'0 0.0
2017-Nov-10 10:00N 29°42' W 095°03'0 0.0
2017-Nov-10 09:30N 29°42' W 095°03'0 0.0
2017-Nov-10 08:59N 29°42' W 095°03'0 0.0
2017-Nov-10 08:28N 29°42' W 095°03'0 0.0
2017-Nov-10 08:00N 29°42' W 095°03'0 0.0
2017-Nov-10 07:30N 29°42' W 095°03'0 0.0
2017-Nov-10 07:00N 29°42' W 095°03'0 0.0
2017-Nov-10 06:30N 29°42' W 095°03'0 0.0
2017-Nov-10 06:00N 29°42' W 095°03'0 0.0
2017-Nov-10 05:30N 29°42' W 095°03'3 6.8
2017-Nov-10 05:00N 29°41' W 094°59'510.1
2017-Nov-10 04:30N 29°37' W 094°57'  

Dump ship's entire track history